createdAt,value
2022-09-21T00:01:20.707Z,99.90
2022-09-21T00:03:51.773Z,99.90
2022-09-21T00:06:20.946Z,99.90
2022-09-21T00:08:48.544Z,99.90
2022-09-21T00:11:18.878Z,99.90
2022-09-21T00:13:46.952Z,99.90
2022-09-21T00:16:16.187Z,99.90
2022-09-21T00:18:43.763Z,99.90
2022-09-21T00:21:13.689Z,99.90
2022-09-21T00:23:41.332Z,99.90
2022-09-21T00:26:17.838Z,99.90
2022-09-21T00:28:45.517Z,99.90
2022-09-21T00:31:16.858Z,99.90
2022-09-21T00:33:44.076Z,99.90
2022-09-21T00:36:19.215Z,99.90
2022-09-21T00:38:50.796Z,99.90
2022-09-21T00:41:17.784Z,99.90
2022-09-21T00:44:08.922Z,99.90
2022-09-21T00:46:39.593Z,99.90
2022-09-21T00:49:07.385Z,99.90
2022-09-21T00:51:35.542Z,99.90
2022-09-21T00:54:13.039Z,99.90
2022-09-21T00:56:39.868Z,99.90
2022-09-21T00:59:08.032Z,99.90
2022-09-21T01:01:38.366Z,99.90
2022-09-21T01:04:07.118Z,99.90
2022-09-21T01:06:37.243Z,99.90
2022-09-21T01:09:04.796Z,99.90
2022-09-21T01:12:07.739Z,99.90
2022-09-21T01:14:42.780Z,99.90
2022-09-21T01:17:38.824Z,99.90
2022-09-21T01:20:26.846Z,99.90
2022-09-21T01:23:10.752Z,99.90
2022-09-21T01:25:58.673Z,99.90
2022-09-21T01:28:47.027Z,99.90
2022-09-21T01:31:21.778Z,99.90
2022-09-21T01:33:54.676Z,99.90
2022-09-21T01:36:28.307Z,99.90
2022-09-21T01:39:02.955Z,99.90
2022-09-21T01:41:32.307Z,99.90
2022-09-21T01:44:08.996Z,99.90
2022-09-21T01:46:37.900Z,99.90
2022-09-21T01:49:15.282Z,99.90
2022-09-21T01:51:46.807Z,99.90
2022-09-21T01:54:20.832Z,99.90
2022-09-21T01:56:59.506Z,99.90
2022-09-21T01:59:34.054Z,99.90
2022-09-21T02:02:08.914Z,99.90
2022-09-21T02:04:36.012Z,99.90
2022-09-21T02:07:03.037Z,99.90
2022-09-21T02:09:30.091Z,99.90
2022-09-21T02:11:58.238Z,99.90
2022-09-21T02:14:25.767Z,99.90
2022-09-21T02:17:34.896Z,99.90
2022-09-21T02:20:22.831Z,99.90
2022-09-21T02:23:04.678Z,99.90
2022-09-21T02:25:52.232Z,99.90
2022-09-21T02:28:46.001Z,99.90
2022-09-21T02:31:17.818Z,99.90
2022-09-21T02:33:53.510Z,99.90
2022-09-21T02:36:47.287Z,99.90
2022-09-21T02:39:21.501Z,99.90
2022-09-21T02:41:51.065Z,99.90
2022-09-21T02:44:32.616Z,99.90
2022-09-21T02:47:10.532Z,99.90
2022-09-21T02:49:48.778Z,99.90
2022-09-21T02:52:17.407Z,99.90
2022-09-21T02:54:48.493Z,99.90
2022-09-21T02:57:18.328Z,99.90
2022-09-21T02:59:45.300Z,99.90
2022-09-21T03:02:12.760Z,99.90
2022-09-21T03:04:41.416Z,99.90
2022-09-21T03:07:09.516Z,99.90
2022-09-21T03:09:36.618Z,99.90
2022-09-21T03:12:03.601Z,99.90
2022-09-21T03:14:33.125Z,99.90
2022-09-21T03:17:00.654Z,99.90
2022-09-21T03:19:28.449Z,99.90
2022-09-21T03:21:55.240Z,99.90
2022-09-21T03:24:40.483Z,99.90
2022-09-21T03:27:10.051Z,99.90
2022-09-21T03:29:36.799Z,99.90
2022-09-21T03:32:04.312Z,99.90
2022-09-21T03:34:34.275Z,99.90
2022-09-21T03:37:02.298Z,99.90
2022-09-21T03:39:29.084Z,99.90
2022-09-21T03:41:56.483Z,99.90
2022-09-21T03:44:24.039Z,99.90
2022-09-21T03:46:50.804Z,99.90
2022-09-21T03:49:18.322Z,99.90
2022-09-21T03:51:45.420Z,99.90
2022-09-21T03:54:12.328Z,99.90
2022-09-21T03:56:39.394Z,99.90
2022-09-21T03:59:09.487Z,99.90
2022-09-21T04:01:38.688Z,99.90
2022-09-21T04:04:05.587Z,99.90
2022-09-21T04:06:32.509Z,99.90
2022-09-21T04:09:00.380Z,99.90
2022-09-21T04:11:27.871Z,99.90
2022-09-21T04:13:57.096Z,99.90
2022-09-21T04:16:25.503Z,99.90
2022-09-21T04:18:52.726Z,99.90
2022-09-21T04:21:20.215Z,99.90
2022-09-21T04:23:47.168Z,99.90
2022-09-21T04:26:34.582Z,99.90
2022-09-21T04:29:02.189Z,99.90
2022-09-21T04:31:30.627Z,99.90
2022-09-21T04:33:58.460Z,99.90
2022-09-21T04:36:28.046Z,99.90
2022-09-21T04:38:55.287Z,99.90
2022-09-21T04:41:22.132Z,99.90
2022-09-21T04:43:49.628Z,99.90
2022-09-21T04:46:20.108Z,99.90
2022-09-21T04:48:48.596Z,99.90
2022-09-21T04:51:17.047Z,99.90
2022-09-21T04:53:44.818Z,99.90
2022-09-21T04:56:15.324Z,99.90
2022-09-21T04:58:42.690Z,99.90
2022-09-21T05:01:09.649Z,99.90
2022-09-21T05:03:36.525Z,99.90
2022-09-21T05:06:03.974Z,99.90
2022-09-21T05:08:49.287Z,99.90
2022-09-21T05:11:20.967Z,99.90
2022-09-21T05:13:48.009Z,99.90
2022-09-21T05:16:16.230Z,99.90
2022-09-21T05:18:43.288Z,99.90
2022-09-21T05:21:12.820Z,99.90
2022-09-21T05:23:39.733Z,99.90
2022-09-21T05:26:07.045Z,99.90
2022-09-21T05:28:37.823Z,99.90
2022-09-21T05:31:31.478Z,99.90
2022-09-21T05:34:18.659Z,99.90
2022-09-21T05:36:45.424Z,99.90
2022-09-21T05:39:12.817Z,99.90
2022-09-21T05:41:40.071Z,99.90
2022-09-21T05:44:07.578Z,99.90
2022-09-21T05:46:41.349Z,99.90
2022-09-21T05:49:31.930Z,99.90
2022-09-21T05:52:05.546Z,99.90
2022-09-21T05:54:54.032Z,99.90
2022-09-21T05:57:57.680Z,99.90
2022-09-21T06:00:39.545Z,99.90
2022-09-21T06:03:38.779Z,99.90
2022-09-21T06:06:08.017Z,99.90
2022-09-21T06:09:06.356Z,99.90
2022-09-21T06:11:33.652Z,99.90
2022-09-21T06:14:14.344Z,99.90
2022-09-21T06:33:37.872Z,94.90
2022-09-21T06:36:04.850Z,95.50
2022-09-21T06:38:31.946Z,96.30
2022-09-21T06:41:04.153Z,96.60
2022-09-21T06:43:37.234Z,93.90
2022-09-21T06:46:10.318Z,94.00
2022-09-21T06:48:46.223Z,93.50
2022-09-21T06:51:13.342Z,93.10
2022-09-21T06:53:45.951Z,92.80
2022-09-21T06:56:13.043Z,92.60
2022-09-21T06:58:40.201Z,92.20
2022-09-21T07:01:18.276Z,91.00
2022-09-21T07:03:48.499Z,88.70
2022-09-21T07:06:32.681Z,89.40
2022-09-21T07:11:58.283Z,90.10
2022-09-21T07:14:34.732Z,89.90
2022-09-21T07:17:02.403Z,88.50
2022-09-21T07:19:47.561Z,87.50
2022-09-21T07:22:23.653Z,86.10
2022-09-21T07:24:50.656Z,85.10
2022-09-21T07:27:17.573Z,84.50
2022-09-21T07:29:47.460Z,82.80
2022-09-21T07:32:14.702Z,82.40
2022-09-21T07:34:41.670Z,80.20
2022-09-21T07:37:08.768Z,78.40
2022-09-21T07:39:35.768Z,76.50
2022-09-21T07:42:02.591Z,74.00
2022-09-21T07:44:29.491Z,73.20
2022-09-21T07:46:59.184Z,70.80
2022-09-21T07:49:26.131Z,71.60
2022-09-21T07:51:54.375Z,69.90
2022-09-21T07:54:21.140Z,66.30
2022-09-21T07:57:08.104Z,66.00
2022-09-21T07:59:35.010Z,65.70
2022-09-21T08:02:02.001Z,66.90
2022-09-21T08:04:28.853Z,64.40
2022-09-21T08:06:56.232Z,64.30
2022-09-21T08:09:23.100Z,62.70
2022-09-21T08:11:52.051Z,60.10
2022-09-21T08:14:23.775Z,58.70
2022-09-21T08:16:53.679Z,58.40
2022-09-21T08:19:21.019Z,58.50
2022-09-21T08:21:56.220Z,59.80
2022-09-21T08:24:26.776Z,59.30
2022-09-21T08:26:56.978Z,60.20
2022-09-21T08:29:28.369Z,57.80
2022-09-21T08:31:55.555Z,57.50
2022-09-21T08:34:24.202Z,56.30
2022-09-21T08:36:55.224Z,55.90
2022-09-21T08:39:22.719Z,54.70
2022-09-21T08:42:08.496Z,55.60
2022-09-21T08:44:54.205Z,54.60
2022-09-21T08:47:43.866Z,55.10
2022-09-21T08:50:30.872Z,54.90
2022-09-21T08:53:21.603Z,52.90
2022-09-21T08:55:48.667Z,51.50
2022-09-21T08:58:23.623Z,51.70
2022-09-21T09:01:19.004Z,51.20
2022-09-21T09:04:26.549Z,50.10
2022-09-21T09:07:08.623Z,48.60
2022-09-21T09:09:44.460Z,48.60
2022-09-21T09:12:47.895Z,48.90
2022-09-21T09:15:21.121Z,50.40
2022-09-21T09:17:52.855Z,50.00
2022-09-21T09:20:43.659Z,48.60
2022-09-21T09:23:19.683Z,48.70
2022-09-21T09:25:51.849Z,48.00
2022-09-21T09:28:46.638Z,47.00
2022-09-21T09:31:25.116Z,46.10
2022-09-21T09:34:26.529Z,46.80
2022-09-21T09:37:05.779Z,46.70
2022-09-21T09:39:32.752Z,46.80
2022-09-21T09:42:24.807Z,46.40
2022-09-21T09:45:40.218Z,45.10
2022-09-21T09:48:16.821Z,46.50
2022-09-21T09:50:44.341Z,48.80
2022-09-21T09:53:21.580Z,49.50
2022-09-21T09:55:55.804Z,51.10
2022-09-21T09:59:08.240Z,52.40
2022-09-21T10:01:47.143Z,49.50
2022-09-21T10:04:17.739Z,49.20
2022-09-21T10:06:46.931Z,47.60
2022-09-21T10:09:26.398Z,46.90
2022-09-21T10:12:06.858Z,46.80
2022-09-21T10:14:36.743Z,46.70
2022-09-21T10:17:08.401Z,44.60
2022-09-21T10:19:35.640Z,43.10
2022-09-21T10:22:04.923Z,44.50
2022-09-21T10:24:38.105Z,42.30
2022-09-21T10:27:07.342Z,43.20
2022-09-21T10:29:46.241Z,43.50
2022-09-21T10:32:14.865Z,44.60
2022-09-21T10:35:03.769Z,46.10
2022-09-21T10:37:38.985Z,46.90
2022-09-21T10:40:27.045Z,48.80
2022-09-21T10:43:19.673Z,49.60
2022-09-21T10:45:55.041Z,49.20
2022-09-21T10:48:26.122Z,48.60
2022-09-21T10:50:54.518Z,46.50
2022-09-21T10:53:28.389Z,44.50
2022-09-21T10:56:15.598Z,43.70
2022-09-21T10:59:23.011Z,43.90
2022-09-21T11:01:57.017Z,44.70
2022-09-21T11:04:46.344Z,46.10
2022-09-21T11:07:24.885Z,44.80
2022-09-21T11:10:10.517Z,45.40
2022-09-21T11:13:00.732Z,44.50
2022-09-21T11:15:49.494Z,43.90
2022-09-21T11:18:31.025Z,43.70
2022-09-21T11:21:27.458Z,43.40
2022-09-21T11:24:11.787Z,42.70
2022-09-21T11:26:52.564Z,43.10
2022-09-21T11:29:28.700Z,42.90
2022-09-21T11:32:31.462Z,44.70
2022-09-21T11:35:33.205Z,44.60
2022-09-21T11:38:34.569Z,44.10
2022-09-21T11:41:13.277Z,45.30
2022-09-21T11:44:03.197Z,46.40
2022-09-21T11:46:43.253Z,49.00
2022-09-21T11:52:49.712Z,52.20
2022-09-21T11:55:34.769Z,50.00
2022-09-21T11:58:40.635Z,47.40
2022-09-21T12:01:38.234Z,46.50
2022-09-21T12:04:31.425Z,48.30
2022-09-21T12:07:04.449Z,47.30
2022-09-21T12:09:53.369Z,46.10
2022-09-21T12:13:22.370Z,45.10
2022-09-21T12:16:21.145Z,44.60
2022-09-21T12:19:11.256Z,43.30
2022-09-21T12:21:44.245Z,42.60
2022-09-21T12:24:32.209Z,41.60
2022-09-21T12:27:08.929Z,41.70
2022-09-21T12:29:47.714Z,40.30
2022-09-21T12:32:30.302Z,41.50
2022-09-21T12:35:08.351Z,40.80
2022-09-21T12:37:58.827Z,42.60
2022-09-21T12:40:43.469Z,45.30
2022-09-21T12:43:41.675Z,47.70
2022-09-21T12:46:24.369Z,47.40
2022-09-21T12:48:54.496Z,44.90
2022-09-21T12:51:42.930Z,43.50
2022-09-21T12:54:36.403Z,43.30
2022-09-21T12:57:38.246Z,41.80
2022-09-21T13:00:27.261Z,39.90
2022-09-21T13:03:16.264Z,39.20
2022-09-21T13:06:24.389Z,40.00
2022-09-21T13:08:52.197Z,41.80
2022-09-21T13:11:21.843Z,40.00
2022-09-21T13:13:53.663Z,39.80
2022-09-21T13:16:31.236Z,40.30
2022-09-21T13:19:04.953Z,38.50
2022-09-21T13:21:36.782Z,37.20
2022-09-21T13:24:06.613Z,39.10
2022-09-21T13:26:42.913Z,39.30
2022-09-21T13:29:25.141Z,38.50
2022-09-21T13:32:14.043Z,38.00
2022-09-21T13:34:45.524Z,39.30
2022-09-21T13:37:15.117Z,38.90
2022-09-21T13:39:50.944Z,37.10
2022-09-21T13:42:30.378Z,38.20
2022-09-21T13:44:58.489Z,37.70
2022-09-21T13:47:46.152Z,38.50
2022-09-21T13:50:33.662Z,37.50
2022-09-21T13:53:03.874Z,37.00
2022-09-21T13:55:34.087Z,37.10
2022-09-21T13:58:07.397Z,37.80
2022-09-21T14:00:40.289Z,36.20
2022-09-21T14:03:18.573Z,36.90
2022-09-21T14:05:48.428Z,36.90
2022-09-21T14:08:15.228Z,36.40
2022-09-21T14:11:05.770Z,37.00
2022-09-21T14:13:43.782Z,36.80
2022-09-21T14:16:40.079Z,36.20
2022-09-21T14:19:18.798Z,37.30
2022-09-21T14:22:06.612Z,37.70
2022-09-21T14:25:27.567Z,36.80
2022-09-21T14:27:58.486Z,36.50
2022-09-21T14:30:32.439Z,37.60
2022-09-21T14:33:19.129Z,37.30
2022-09-21T14:35:47.383Z,37.40
2022-09-21T14:38:27.110Z,37.10
2022-09-21T14:41:00.544Z,37.50
2022-09-21T14:43:35.433Z,37.90
2022-09-21T14:46:32.459Z,38.30
2022-09-21T14:49:30.192Z,39.20
2022-09-21T14:52:35.006Z,38.80
2022-09-21T14:55:17.000Z,38.90
2022-09-21T14:58:15.389Z,39.00
2022-09-21T15:00:44.741Z,38.70
2022-09-21T15:03:36.951Z,37.60
2022-09-21T15:06:31.649Z,37.70
2022-09-21T15:09:48.143Z,37.30
2022-09-21T15:12:20.128Z,36.50
2022-09-21T15:14:57.770Z,36.50
2022-09-21T15:17:27.329Z,36.70
2022-09-21T15:20:16.985Z,37.30
2022-09-21T15:22:45.247Z,37.90
2022-09-21T15:36:44.986Z,39.60
2022-09-21T15:46:46.866Z,39.90
2022-09-21T15:49:22.287Z,40.60
2022-09-21T15:51:59.883Z,40.80
2022-09-21T15:54:58.781Z,40.90
2022-09-21T16:01:30.689Z,40.60
2022-09-21T16:34:52.516Z,49.60
2022-09-21T16:56:21.445Z,56.30
2022-09-21T17:10:00.801Z,64.20
2022-09-21T17:12:28.462Z,66.10
2022-09-21T17:14:55.878Z,67.30
2022-09-21T17:17:27.890Z,68.60
2022-09-21T17:19:54.821Z,70.10
2022-09-21T17:22:23.113Z,71.10
2022-09-21T17:24:52.543Z,72.80
2022-09-21T17:27:21.922Z,74.90
2022-09-21T17:29:49.923Z,76.40
2022-09-21T17:32:23.113Z,77.90
2022-09-21T17:35:18.616Z,80.50
2022-09-21T17:37:46.020Z,82.70
2022-09-21T17:40:13.654Z,85.10
2022-09-21T17:42:43.304Z,86.90
2022-09-21T17:45:25.197Z,87.70
2022-09-21T17:47:52.463Z,89.50
2022-09-21T17:50:26.937Z,90.60
2022-09-21T17:53:13.826Z,91.20
2022-09-21T17:55:48.344Z,92.30
2022-09-21T17:58:51.871Z,93.30
2022-09-21T18:01:36.067Z,93.90
2022-09-21T18:04:04.266Z,95.00
2022-09-21T18:06:31.620Z,95.80
2022-09-21T18:08:58.877Z,96.40
2022-09-21T18:11:34.625Z,96.70
2022-09-21T18:14:20.355Z,97.60
2022-09-21T18:17:17.441Z,98.20
2022-09-21T18:20:10.442Z,99.30
2022-09-21T18:22:50.750Z,99.90
2022-09-21T18:25:34.101Z,99.90
2022-09-21T18:28:12.181Z,99.90
2022-09-21T18:30:43.974Z,99.90
2022-09-21T18:33:27.117Z,99.90
2022-09-21T18:36:03.263Z,99.90
2022-09-21T18:38:43.281Z,99.90
2022-09-21T18:41:32.381Z,99.90
2022-09-21T18:44:13.102Z,99.90
2022-09-21T18:47:02.209Z,99.90
2022-09-21T18:49:29.189Z,99.90
2022-09-21T18:52:25.007Z,99.90
2022-09-21T18:54:51.985Z,99.90
2022-09-21T18:57:19.091Z,99.90
2022-09-21T18:59:46.104Z,99.90
2022-09-21T19:02:15.531Z,99.90
2022-09-21T19:04:44.189Z,99.90
2022-09-21T19:07:39.960Z,99.90
2022-09-21T19:10:25.559Z,99.90
2022-09-21T19:12:52.289Z,99.90
2022-09-21T19:15:58.534Z,99.90
2022-09-21T19:18:30.597Z,99.90
2022-09-21T19:21:20.751Z,99.90
2022-09-21T19:23:59.121Z,99.90
2022-09-21T19:26:58.109Z,99.90
2022-09-21T19:29:35.216Z,99.90
2022-09-21T19:32:02.169Z,99.90
2022-09-21T19:34:29.131Z,99.90
2022-09-21T19:36:57.355Z,99.90
2022-09-21T19:39:24.568Z,99.90
2022-09-21T19:42:21.018Z,99.90
2022-09-21T19:44:54.639Z,99.90
2022-09-21T19:47:35.915Z,99.90
2022-09-21T19:50:20.413Z,99.90
2022-09-21T19:52:47.488Z,99.90
2022-09-21T19:55:35.452Z,99.90
2022-09-21T19:58:21.813Z,99.90
2022-09-21T20:00:53.419Z,99.90
2022-09-21T20:03:31.291Z,99.90
2022-09-21T20:06:04.642Z,99.90
2022-09-21T20:08:50.072Z,99.90
2022-09-21T20:11:29.257Z,99.90
2022-09-21T20:14:06.326Z,99.90
2022-09-21T20:17:00.936Z,99.90
2022-09-21T20:19:46.423Z,99.90
2022-09-21T20:22:15.047Z,99.90
2022-09-21T20:24:50.727Z,99.90
2022-09-21T20:27:30.354Z,99.90
2022-09-21T20:29:57.141Z,99.90
2022-09-21T20:32:24.154Z,99.90
2022-09-21T20:34:51.180Z,99.90
2022-09-21T20:37:18.076Z,99.90
2022-09-21T20:39:45.011Z,99.90
2022-09-21T20:42:23.540Z,99.90
2022-09-21T20:44:54.039Z,99.90
2022-09-21T20:47:21.319Z,99.90
2022-09-21T20:49:49.137Z,99.90
2022-09-21T20:52:17.408Z,99.90
2022-09-21T20:54:49.004Z,99.90
2022-09-21T20:57:20.284Z,99.90
2022-09-21T20:59:47.420Z,99.90
2022-09-21T21:02:16.626Z,99.90
2022-09-21T21:04:43.461Z,99.90
2022-09-21T21:07:10.228Z,99.90
2022-09-21T21:09:37.036Z,99.90
2022-09-21T21:12:03.934Z,99.90
2022-09-21T21:14:30.733Z,99.90
2022-09-21T21:16:57.598Z,99.90
2022-09-21T21:19:24.428Z,99.90
2022-09-21T21:21:51.220Z,99.90
2022-09-21T21:24:36.680Z,99.90
2022-09-21T21:27:03.812Z,99.90
2022-09-21T21:29:32.070Z,99.90
2022-09-21T21:31:59.809Z,99.90
2022-09-21T21:34:27.131Z,99.90
2022-09-21T21:36:54.009Z,99.90
2022-09-21T21:39:20.783Z,99.90
2022-09-21T21:41:47.736Z,99.90
2022-09-21T21:44:15.739Z,99.90
2022-09-21T21:46:43.371Z,99.90
2022-09-21T21:49:10.171Z,99.90
2022-09-21T21:51:36.978Z,99.90
2022-09-21T21:54:03.904Z,99.90
2022-09-21T21:56:30.763Z,99.90
2022-09-21T21:58:57.515Z,99.90
2022-09-21T22:01:26.793Z,99.90
2022-09-21T22:03:55.794Z,99.90
2022-09-21T22:06:23.088Z,99.90
2022-09-21T22:08:50.537Z,99.90
2022-09-21T22:11:17.736Z,99.90
2022-09-21T22:13:45.717Z,99.90
2022-09-21T22:16:17.666Z,99.90
2022-09-21T22:18:46.269Z,99.90
2022-09-21T22:21:16.136Z,99.90
2022-09-21T22:23:43.763Z,99.90
2022-09-21T22:26:13.873Z,99.90
2022-09-21T22:28:47.734Z,99.90
2022-09-21T22:31:17.590Z,99.90
2022-09-21T22:33:45.015Z,99.90
2022-09-21T22:36:14.444Z,99.90
2022-09-21T22:38:43.262Z,99.90
2022-09-21T22:41:12.779Z,99.90
2022-09-21T22:43:40.491Z,99.90
2022-09-21T22:46:07.862Z,99.90
2022-09-21T22:48:35.342Z,99.90
2022-09-21T22:51:03.213Z,99.90
2022-09-21T22:53:31.465Z,99.90
2022-09-21T22:56:02.732Z,99.90
2022-09-21T22:58:30.906Z,99.90
2022-09-21T23:01:11.580Z,99.90
2022-09-21T23:03:39.925Z,99.90
2022-09-21T23:06:09.642Z,99.90
2022-09-21T23:08:36.884Z,99.90
2022-09-21T23:11:27.148Z,99.90
2022-09-21T23:13:55.562Z,99.90
2022-09-21T23:16:23.502Z,99.90
2022-09-21T23:18:50.397Z,99.90
2022-09-21T23:21:21.203Z,99.90
2022-09-21T23:23:48.827Z,99.90
2022-09-21T23:26:22.625Z,99.90
2022-09-21T23:28:55.301Z,99.90
2022-09-21T23:31:23.057Z,99.90
2022-09-21T23:33:52.263Z,99.90
2022-09-21T23:36:21.754Z,99.90
2022-09-21T23:38:50.033Z,99.90
2022-09-21T23:41:22.671Z,99.90
2022-09-21T23:43:50.005Z,99.90
2022-09-21T23:46:20.674Z,99.90
2022-09-21T23:48:47.999Z,99.90
2022-09-21T23:51:15.276Z,99.90
2022-09-21T23:53:42.295Z,99.90
2022-09-21T23:56:12.446Z,99.90
2022-09-21T23:58:39.416Z,99.90
